sensor_id;sensor_type;location;lat;lon;timestamp;P1;durP1;ratioP1;P2;durP2;ratioP2
7961;SDS011;4026;43.652;24.906;2024-01-27T00:00:48;1.03;;;0.90;;
7961;SDS011;4026;43.652;24.906;2024-01-27T00:03:15;0.57;;;0.50;;
7961;SDS011;4026;43.652;24.906;2024-01-27T00:05:42;1.17;;;1.07;;
7961;SDS011;4026;43.652;24.906;2024-01-27T00:08:09;0.80;;;0.80;;
7961;SDS011;4026;43.652;24.906;2024-01-27T00:10:37;1.83;;;1.00;;
7961;SDS011;4026;43.652;24.906;2024-01-27T00:13:04;1.00;;;1.00;;
7961;SDS011;4026;43.652;24.906;2024-01-27T00:15:30;1.67;;;1.53;;
7961;SDS011;4026;43.652;24.906;2024-01-27T00:17:57;1.73;;;1.20;;
7961;SDS011;4026;43.652;24.906;2024-01-27T00:20:24;0.83;;;0.83;;
7961;SDS011;4026;43.652;24.906;2024-01-27T00:22:51;1.33;;;0.90;;
7961;SDS011;4026;43.652;24.906;2024-01-27T00:25:18;1.43;;;0.87;;
7961;SDS011;4026;43.652;24.906;2024-01-27T00:27:46;2.63;;;1.53;;
7961;SDS011;4026;43.652;24.906;2024-01-27T00:30:13;1.37;;;1.27;;
7961;SDS011;4026;43.652;24.906;2024-01-27T00:32:40;1.47;;;1.23;;
7961;SDS011;4026;43.652;24.906;2024-01-27T00:35:07;0.80;;;0.80;;
7961;SDS011;4026;43.652;24.906;2024-01-27T00:37:34;0.93;;;0.87;;
7961;SDS011;4026;43.652;24.906;2024-01-27T00:40:01;1.33;;;0.67;;
7961;SDS011;4026;43.652;24.906;2024-01-27T00:42:28;1.30;;;1.07;;
7961;SDS011;4026;43.652;24.906;2024-01-27T00:44:56;1.10;;;0.90;;
7961;SDS011;4026;43.652;24.906;2024-01-27T00:47:23;0.77;;;0.77;;
7961;SDS011;4026;43.652;24.906;2024-01-27T00:49:50;0.90;;;0.90;;
7961;SDS011;4026;43.652;24.906;2024-01-27T00:52:19;1.20;;;1.10;;
7961;SDS011;4026;43.652;24.906;2024-01-27T00:54:46;0.87;;;0.83;;
7961;SDS011;4026;43.652;24.906;2024-01-27T00:57:12;0.67;;;0.67;;
7961;SDS011;4026;43.652;24.906;2024-01-27T00:59:39;0.90;;;0.90;;
7961;SDS011;4026;43.652;24.906;2024-01-27T01:02:08;1.13;;;1.03;;
7961;SDS011;4026;43.652;24.906;2024-01-27T01:04:34;0.50;;;0.50;;
7961;SDS011;4026;43.652;24.906;2024-01-27T01:07:02;0.73;;;0.60;;
7961;SDS011;4026;43.652;24.906;2024-01-27T01:09:29;0.57;;;0.57;;
7961;SDS011;4026;43.652;24.906;2024-01-27T01:11:56;0.77;;;0.57;;
7961;SDS011;4026;43.652;24.906;2024-01-27T01:14:22;1.03;;;0.63;;
7961;SDS011;4026;43.652;24.906;2024-01-27T01:16:49;0.77;;;0.77;;
7961;SDS011;4026;43.652;24.906;2024-01-27T01:19:17;0.63;;;0.63;;
7961;SDS011;4026;43.652;24.906;2024-01-27T01:21:44;1.90;;;1.17;;
7961;SDS011;4026;43.652;24.906;2024-01-27T01:24:11;1.60;;;1.27;;
7961;SDS011;4026;43.652;24.906;2024-01-27T01:26:38;0.50;;;0.50;;
7961;SDS011;4026;43.652;24.906;2024-01-27T01:29:05;0.67;;;0.67;;
7961;SDS011;4026;43.652;24.906;2024-01-27T01:31:31;1.60;;;0.67;;
7961;SDS011;4026;43.652;24.906;2024-01-27T01:33:58;0.63;;;0.63;;
7961;SDS011;4026;43.652;24.906;2024-01-27T01:36:26;0.77;;;0.53;;
7961;SDS011;4026;43.652;24.906;2024-01-27T01:38:53;1.03;;;0.80;;
7961;SDS011;4026;43.652;24.906;2024-01-27T01:41:20;1.00;;;0.93;;
7961;SDS011;4026;43.652;24.906;2024-01-27T01:43:47;0.70;;;0.70;;
7961;SDS011;4026;43.652;24.906;2024-01-27T01:46:14;0.40;;;0.40;;
7961;SDS011;4026;43.652;24.906;2024-01-27T01:48:40;0.40;;;0.40;;
7961;SDS011;4026;43.652;24.906;2024-01-27T01:51:08;0.60;;;0.43;;
7961;SDS011;4026;43.652;24.906;2024-01-27T01:53:36;1.23;;;0.73;;
7961;SDS011;4026;43.652;24.906;2024-01-27T01:56:03;1.37;;;1.27;;
7961;SDS011;4026;43.652;24.906;2024-01-27T01:58:31;0.60;;;0.57;;
7961;SDS011;4026;43.652;24.906;2024-01-27T02:00:59;0.40;;;0.40;;
7961;SDS011;4026;43.652;24.906;2024-01-27T02:03:26;0.50;;;0.50;;
7961;SDS011;4026;43.652;24.906;2024-01-27T02:05:53;0.97;;;0.67;;
7961;SDS011;4026;43.652;24.906;2024-01-27T02:08:20;0.93;;;0.80;;
7961;SDS011;4026;43.652;24.906;2024-01-27T02:10:48;0.50;;;0.50;;
7961;SDS011;4026;43.652;24.906;2024-01-27T02:13:16;0.23;;;0.23;;
7961;SDS011;4026;43.652;24.906;2024-01-27T02:15:44;1.47;;;0.80;;
7961;SDS011;4026;43.652;24.906;2024-01-27T02:18:11;0.87;;;0.60;;
7961;SDS011;4026;43.652;24.906;2024-01-27T02:20:38;0.70;;;0.67;;
7961;SDS011;4026;43.652;24.906;2024-01-27T02:23:05;0.80;;;0.70;;
7961;SDS011;4026;43.652;24.906;2024-01-27T02:25:34;1.23;;;0.80;;
7961;SDS011;4026;43.652;24.906;2024-01-27T02:28:01;0.50;;;0.50;;
7961;SDS011;4026;43.652;24.906;2024-01-27T02:30:28;1.00;;;0.90;;
7961;SDS011;4026;43.652;24.906;2024-01-27T02:32:55;2.27;;;0.57;;
7961;SDS011;4026;43.652;24.906;2024-01-27T02:35:23;0.50;;;0.50;;
7961;SDS011;4026;43.652;24.906;2024-01-27T02:37:49;0.43;;;0.43;;
7961;SDS011;4026;43.652;24.906;2024-01-27T02:40:16;1.10;;;0.60;;
7961;SDS011;4026;43.652;24.906;2024-01-27T02:42:45;0.80;;;0.80;;
7961;SDS011;4026;43.652;24.906;2024-01-27T02:45:12;1.33;;;1.10;;
7961;SDS011;4026;43.652;24.906;2024-01-27T02:47:38;1.00;;;1.00;;
7961;SDS011;4026;43.652;24.906;2024-01-27T02:50:06;0.73;;;0.60;;
7961;SDS011;4026;43.652;24.906;2024-01-27T02:52:33;0.43;;;0.43;;
7961;SDS011;4026;43.652;24.906;2024-01-27T02:55:00;0.90;;;0.90;;
7961;SDS011;4026;43.652;24.906;2024-01-27T02:57:27;0.83;;;0.83;;
7961;SDS011;4026;43.652;24.906;2024-01-27T02:59:56;0.87;;;0.60;;
7961;SDS011;4026;43.652;24.906;2024-01-27T03:02:24;1.40;;;1.10;;
7961;SDS011;4026;43.652;24.906;2024-01-27T03:04:50;1.53;;;1.30;;
7961;SDS011;4026;43.652;24.906;2024-01-27T03:07:17;0.40;;;0.40;;
7961;SDS011;4026;43.652;24.906;2024-01-27T03:09:44;1.37;;;1.27;;
7961;SDS011;4026;43.652;24.906;2024-01-27T03:12:11;0.60;;;0.60;;
7961;SDS011;4026;43.652;24.906;2024-01-27T03:14:38;3.30;;;1.37;;
7961;SDS011;4026;43.652;24.906;2024-01-27T03:17:06;1.03;;;0.77;;
7961;SDS011;4026;43.652;24.906;2024-01-27T03:19:33;1.03;;;0.80;;
7961;SDS011;4026;43.652;24.906;2024-01-27T03:22:00;1.73;;;0.90;;
7961;SDS011;4026;43.652;24.906;2024-01-27T03:24:27;0.80;;;0.73;;
7961;SDS011;4026;43.652;24.906;2024-01-27T03:26:53;0.63;;;0.60;;
7961;SDS011;4026;43.652;24.906;2024-01-27T03:29:20;0.63;;;0.60;;
7961;SDS011;4026;43.652;24.906;2024-01-27T03:31:47;1.33;;;1.03;;
7961;SDS011;4026;43.652;24.906;2024-01-27T03:34:15;0.93;;;0.63;;
7961;SDS011;4026;43.652;24.906;2024-01-27T03:36:47;4.00;;;0.90;;
7961;SDS011;4026;43.652;24.906;2024-01-27T03:39:14;0.33;;;0.33;;
7961;SDS011;4026;43.652;24.906;2024-01-27T03:41:41;0.60;;;0.60;;
7961;SDS011;4026;43.652;24.906;2024-01-27T03:44:07;2.90;;;1.13;;
7961;SDS011;4026;43.652;24.906;2024-01-27T03:46:34;1.07;;;1.00;;
7961;SDS011;4026;43.652;24.906;2024-01-27T03:49:02;0.83;;;0.73;;
7961;SDS011;4026;43.652;24.906;2024-01-27T03:51:31;0.73;;;0.73;;
7961;SDS011;4026;43.652;24.906;2024-01-27T03:53:58;1.43;;;1.33;;
7961;SDS011;4026;43.652;24.906;2024-01-27T03:56:24;1.47;;;0.90;;
7961;SDS011;4026;43.652;24.906;2024-01-27T03:58:51;0.87;;;0.87;;
7961;SDS011;4026;43.652;24.906;2024-01-27T04:01:18;1.13;;;0.80;;
7961;SDS011;4026;43.652;24.906;2024-01-27T04:03:45;2.43;;;1.23;;
7961;SDS011;4026;43.652;24.906;2024-01-27T04:06:11;1.13;;;0.90;;
7961;SDS011;4026;43.652;24.906;2024-01-27T04:08:40;1.23;;;0.87;;
7961;SDS011;4026;43.652;24.906;2024-01-27T04:11:08;0.47;;;0.47;;
7961;SDS011;4026;43.652;24.906;2024-01-27T04:13:35;2.63;;;0.87;;
7961;SDS011;4026;43.652;24.906;2024-01-27T04:16:02;0.73;;;0.53;;
7961;SDS011;4026;43.652;24.906;2024-01-27T04:18:29;2.50;;;1.37;;
7961;SDS011;4026;43.652;24.906;2024-01-27T04:20:56;0.67;;;0.67;;
7961;SDS011;4026;43.652;24.906;2024-01-27T04:23:23;0.67;;;0.57;;
7961;SDS011;4026;43.652;24.906;2024-01-27T04:25:51;1.30;;;0.80;;
7961;SDS011;4026;43.652;24.906;2024-01-27T04:28:18;0.70;;;0.70;;
7961;SDS011;4026;43.652;24.906;2024-01-27T04:30:45;1.13;;;0.73;;
7961;SDS011;4026;43.652;24.906;2024-01-27T04:33:11;3.00;;;0.83;;
7961;SDS011;4026;43.652;24.906;2024-01-27T04:35:38;3.13;;;0.60;;
7961;SDS011;4026;43.652;24.906;2024-01-27T04:38:05;1.63;;;0.57;;
7961;SDS011;4026;43.652;24.906;2024-01-27T04:40:34;1.23;;;0.90;;
7961;SDS011;4026;43.652;24.906;2024-01-27T04:43:02;2.27;;;0.60;;
7961;SDS011;4026;43.652;24.906;2024-01-27T04:45:29;1.17;;;0.60;;
7961;SDS011;4026;43.652;24.906;2024-01-27T04:47:56;0.60;;;0.60;;
7961;SDS011;4026;43.652;24.906;2024-01-27T04:50:23;1.40;;;1.17;;
7961;SDS011;4026;43.652;24.906;2024-01-27T04:52:50;0.33;;;0.33;;
7961;SDS011;4026;43.652;24.906;2024-01-27T04:55:16;1.60;;;1.10;;
7961;SDS011;4026;43.652;24.906;2024-01-27T04:57:43;1.50;;;1.00;;
7961;SDS011;4026;43.652;24.906;2024-01-27T05:00:12;0.50;;;0.50;;
7961;SDS011;4026;43.652;24.906;2024-01-27T05:02:41;6.70;;;0.73;;
7961;SDS011;4026;43.652;24.906;2024-01-27T05:05:08;0.63;;;0.63;;
7961;SDS011;4026;43.652;24.906;2024-01-27T05:07:37;3.90;;;0.97;;
7961;SDS011;4026;43.652;24.906;2024-01-27T05:10:04;0.70;;;0.70;;
7961;SDS011;4026;43.652;24.906;2024-01-27T05:12:31;0.43;;;0.43;;
7961;SDS011;4026;43.652;24.906;2024-01-27T05:14:58;0.40;;;0.40;;
7961;SDS011;4026;43.652;24.906;2024-01-27T05:17:26;0.83;;;0.83;;
7961;SDS011;4026;43.652;24.906;2024-01-27T05:19:53;0.57;;;0.57;;
7961;SDS011;4026;43.652;24.906;2024-01-27T05:22:20;1.03;;;0.53;;
7961;SDS011;4026;43.652;24.906;2024-01-27T05:24:47;0.57;;;0.57;;
7961;SDS011;4026;43.652;24.906;2024-01-27T05:27:14;2.77;;;0.67;;
7961;SDS011;4026;43.652;24.906;2024-01-27T05:29:40;0.50;;;0.50;;
7961;SDS011;4026;43.652;24.906;2024-01-27T05:32:07;2.30;;;0.63;;
7961;SDS011;4026;43.652;24.906;2024-01-27T05:34:36;0.60;;;0.60;;
7961;SDS011;4026;43.652;24.906;2024-01-27T05:37:03;1.40;;;0.93;;
7961;SDS011;4026;43.652;24.906;2024-01-27T05:39:29;0.60;;;0.60;;
7961;SDS011;4026;43.652;24.906;2024-01-27T05:41:57;0.67;;;0.43;;
7961;SDS011;4026;43.652;24.906;2024-01-27T05:44:24;0.57;;;0.57;;
7961;SDS011;4026;43.652;24.906;2024-01-27T05:46:51;1.17;;;0.53;;
7961;SDS011;4026;43.652;24.906;2024-01-27T05:49:18;0.60;;;0.60;;
7961;SDS011;4026;43.652;24.906;2024-01-27T05:51:46;0.23;;;0.23;;
7961;SDS011;4026;43.652;24.906;2024-01-27T05:54:13;0.70;;;0.60;;
7961;SDS011;4026;43.652;24.906;2024-01-27T05:56:41;2.43;;;0.70;;
7961;SDS011;4026;43.652;24.906;2024-01-27T05:59:08;0.60;;;0.60;;
7961;SDS011;4026;43.652;24.906;2024-01-27T06:01:35;0.73;;;0.73;;
7961;SDS011;4026;43.652;24.906;2024-01-27T06:04:02;0.30;;;0.30;;
7961;SDS011;4026;43.652;24.906;2024-01-27T06:06:29;1.00;;;0.90;;
7961;SDS011;4026;43.652;24.906;2024-01-27T06:08:57;0.70;;;0.60;;
7961;SDS011;4026;43.652;24.906;2024-01-27T06:11:24;0.87;;;0.70;;
7961;SDS011;4026;43.652;24.906;2024-01-27T06:13:51;0.80;;;0.60;;
7961;SDS011;4026;43.652;24.906;2024-01-27T06:16:18;0.93;;;0.77;;
7961;SDS011;4026;43.652;24.906;2024-01-27T06:18:45;2.37;;;1.20;;
7961;SDS011;4026;43.652;24.906;2024-01-27T06:21:12;0.73;;;0.67;;
7961;SDS011;4026;43.652;24.906;2024-01-27T06:23:39;0.60;;;0.53;;
7961;SDS011;4026;43.652;24.906;2024-01-27T06:26:07;0.47;;;0.47;;
7961;SDS011;4026;43.652;24.906;2024-01-27T06:28:34;0.80;;;0.63;;
7961;SDS011;4026;43.652;24.906;2024-01-27T06:31:02;0.60;;;0.60;;
7961;SDS011;4026;43.652;24.906;2024-01-27T06:33:29;1.10;;;0.80;;
7961;SDS011;4026;43.652;24.906;2024-01-27T06:35:56;1.80;;;0.60;;
7961;SDS011;4026;43.652;24.906;2024-01-27T06:38:23;0.60;;;0.60;;
7961;SDS011;4026;43.652;24.906;2024-01-27T06:40:49;0.73;;;0.53;;
7961;SDS011;4026;43.652;24.906;2024-01-27T06:43:18;0.53;;;0.33;;
7961;SDS011;4026;43.652;24.906;2024-01-27T06:45:44;6.40;;;0.87;;
7961;SDS011;4026;43.652;24.906;2024-01-27T06:48:11;1.53;;;0.80;;
7961;SDS011;4026;43.652;24.906;2024-01-27T06:50:38;1.07;;;0.80;;
7961;SDS011;4026;43.652;24.906;2024-01-27T06:53:05;0.70;;;0.70;;
7961;SDS011;4026;43.652;24.906;2024-01-27T06:55:32;1.00;;;0.90;;
7961;SDS011;4026;43.652;24.906;2024-01-27T06:57:58;0.60;;;0.60;;
7961;SDS011;4026;43.652;24.906;2024-01-27T07:00:26;0.70;;;0.70;;
7961;SDS011;4026;43.652;24.906;2024-01-27T07:02:53;0.33;;;0.33;;
7961;SDS011;4026;43.652;24.906;2024-01-27T07:05:21;3.00;;;0.73;;
7961;SDS011;4026;43.652;24.906;2024-01-27T07:07:47;1.43;;;0.77;;
7961;SDS011;4026;43.652;24.906;2024-01-27T07:10:15;0.87;;;0.87;;
7961;SDS011;4026;43.652;24.906;2024-01-27T07:12:41;0.60;;;0.60;;
7961;SDS011;4026;43.652;24.906;2024-01-27T07:15:09;0.53;;;0.53;;
7961;SDS011;4026;43.652;24.906;2024-01-27T07:17:37;0.67;;;0.67;;
7961;SDS011;4026;43.652;24.906;2024-01-27T07:20:04;0.87;;;0.60;;
7961;SDS011;4026;43.652;24.906;2024-01-27T07:22:32;0.57;;;0.57;;
7961;SDS011;4026;43.652;24.906;2024-01-27T07:24:59;0.50;;;0.50;;
7961;SDS011;4026;43.652;24.906;2024-01-27T07:27:25;0.37;;;0.37;;
7961;SDS011;4026;43.652;24.906;2024-01-27T07:29:52;1.90;;;0.90;;
7961;SDS011;4026;43.652;24.906;2024-01-27T07:32:19;1.63;;;0.97;;
7961;SDS011;4026;43.652;24.906;2024-01-27T07:34:48;0.93;;;0.93;;
7961;SDS011;4026;43.652;24.906;2024-01-27T07:37:15;0.63;;;0.57;;
7961;SDS011;4026;43.652;24.906;2024-01-27T07:39:42;0.60;;;0.60;;
7961;SDS011;4026;43.652;24.906;2024-01-27T07:42:09;1.13;;;0.77;;
7961;SDS011;4026;43.652;24.906;2024-01-27T07:44:36;0.67;;;0.67;;
7961;SDS011;4026;43.652;24.906;2024-01-27T07:47:03;2.87;;;0.90;;
7961;SDS011;4026;43.652;24.906;2024-01-27T07:49:30;1.30;;;1.13;;
7961;SDS011;4026;43.652;24.906;2024-01-27T07:51:58;1.57;;;1.47;;
7961;SDS011;4026;43.652;24.906;2024-01-27T07:54:25;1.13;;;0.90;;
7961;SDS011;4026;43.652;24.906;2024-01-27T07:56:52;0.93;;;0.83;;
7961;SDS011;4026;43.652;24.906;2024-01-27T07:59:18;0.97;;;0.80;;
7961;SDS011;4026;43.652;24.906;2024-01-27T08:01:45;9.83;;;1.30;;
7961;SDS011;4026;43.652;24.906;2024-01-27T08:04:12;2.40;;;1.43;;
7961;SDS011;4026;43.652;24.906;2024-01-27T08:06:47;5.40;;;2.10;;
7961;SDS011;4026;43.652;24.906;2024-01-27T08:09:17;2.93;;;1.73;;
7961;SDS011;4026;43.652;24.906;2024-01-27T08:11:44;1.63;;;1.40;;
7961;SDS011;4026;43.652;24.906;2024-01-27T08:14:16;2.17;;;1.40;;
7961;SDS011;4026;43.652;24.906;2024-01-27T08:16:43;2.63;;;1.83;;
7961;SDS011;4026;43.652;24.906;2024-01-27T08:19:10;1.53;;;1.30;;
7961;SDS011;4026;43.652;24.906;2024-01-27T08:21:36;1.73;;;1.00;;
7961;SDS011;4026;43.652;24.906;2024-01-27T08:24:03;1.67;;;1.20;;
7961;SDS011;4026;43.652;24.906;2024-01-27T08:26:32;2.83;;;1.80;;
7961;SDS011;4026;43.652;24.906;2024-01-27T08:28:59;1.30;;;0.90;;
7961;SDS011;4026;43.652;24.906;2024-01-27T08:31:25;2.60;;;1.83;;
7961;SDS011;4026;43.652;24.906;2024-01-27T08:33:52;3.60;;;1.60;;
7961;SDS011;4026;43.652;24.906;2024-01-27T08:36:19;1.00;;;1.00;;
7961;SDS011;4026;43.652;24.906;2024-01-27T08:38:46;2.80;;;1.30;;
7961;SDS011;4026;43.652;24.906;2024-01-27T08:41:13;3.27;;;1.23;;
7961;SDS011;4026;43.652;24.906;2024-01-27T08:43:41;3.17;;;1.73;;
7961;SDS011;4026;43.652;24.906;2024-01-27T08:46:08;5.70;;;2.03;;
7961;SDS011;4026;43.652;24.906;2024-01-27T08:48:37;1.20;;;1.10;;
7961;SDS011;4026;43.652;24.906;2024-01-27T08:51:04;2.93;;;2.00;;
7961;SDS011;4026;43.652;24.906;2024-01-27T08:53:30;3.83;;;2.00;;
7961;SDS011;4026;43.652;24.906;2024-01-27T08:55:57;1.50;;;1.10;;
7961;SDS011;4026;43.652;24.906;2024-01-27T08:58:24;3.20;;;1.90;;
7961;SDS011;4026;43.652;24.906;2024-01-27T09:00:52;1.83;;;1.73;;
7961;SDS011;4026;43.652;24.906;2024-01-27T09:03:19;2.00;;;1.83;;
7961;SDS011;4026;43.652;24.906;2024-01-27T09:05:46;2.03;;;1.37;;
7961;SDS011;4026;43.652;24.906;2024-01-27T09:08:14;1.40;;;1.30;;
7961;SDS011;4026;43.652;24.906;2024-01-27T09:10:41;2.30;;;1.90;;
7961;SDS011;4026;43.652;24.906;2024-01-27T09:13:07;2.63;;;2.10;;
7961;SDS011;4026;43.652;24.906;2024-01-27T09:15:34;2.40;;;1.77;;
7961;SDS011;4026;43.652;24.906;2024-01-27T09:18:03;2.60;;;1.53;;
7961;SDS011;4026;43.652;24.906;2024-01-27T09:20:30;3.30;;;2.40;;
7961;SDS011;4026;43.652;24.906;2024-01-27T09:22:57;4.43;;;2.40;;
7961;SDS011;4026;43.652;24.906;2024-01-27T09:25:24;3.43;;;1.83;;
7961;SDS011;4026;43.652;24.906;2024-01-27T09:27:53;3.53;;;2.53;;
7961;SDS011;4026;43.652;24.906;2024-01-27T09:30:20;3.60;;;2.00;;
7961;SDS011;4026;43.652;24.906;2024-01-27T09:32:46;2.10;;;1.90;;
7961;SDS011;4026;43.652;24.906;2024-01-27T09:35:15;4.27;;;1.27;;
7961;SDS011;4026;43.652;24.906;2024-01-27T09:37:41;2.47;;;1.57;;
7961;SDS011;4026;43.652;24.906;2024-01-27T09:40:11;3.73;;;1.77;;
7961;SDS011;4026;43.652;24.906;2024-01-27T09:42:38;1.50;;;1.40;;
7961;SDS011;4026;43.652;24.906;2024-01-27T09:45:05;1.57;;;1.33;;
7961;SDS011;4026;43.652;24.906;2024-01-27T09:47:32;2.00;;;1.70;;
7961;SDS011;4026;43.652;24.906;2024-01-27T09:49:59;1.73;;;1.10;;
7961;SDS011;4026;43.652;24.906;2024-01-27T09:52:27;2.60;;;1.53;;
7961;SDS011;4026;43.652;24.906;2024-01-27T09:54:54;2.67;;;1.73;;
7961;SDS011;4026;43.652;24.906;2024-01-27T09:57:21;3.83;;;1.40;;
7961;SDS011;4026;43.652;24.906;2024-01-27T09:59:49;2.13;;;1.60;;
7961;SDS011;4026;43.652;24.906;2024-01-27T10:02:16;1.57;;;1.27;;
7961;SDS011;4026;43.652;24.906;2024-01-27T10:04:47;4.17;;;1.60;;
7961;SDS011;4026;43.652;24.906;2024-01-27T10:07:14;1.30;;;1.20;;
7961;SDS011;4026;43.652;24.906;2024-01-27T10:09:42;2.67;;;1.30;;
7961;SDS011;4026;43.652;24.906;2024-01-27T10:12:09;4.07;;;0.87;;
7961;SDS011;4026;43.652;24.906;2024-01-27T10:14:39;1.50;;;1.40;;
7961;SDS011;4026;43.652;24.906;2024-01-27T10:17:05;5.47;;;1.60;;
7961;SDS011;4026;43.652;24.906;2024-01-27T10:19:36;1.50;;;1.00;;
7961;SDS011;4026;43.652;24.906;2024-01-27T10:22:03;1.50;;;1.20;;
7961;SDS011;4026;43.652;24.906;2024-01-27T10:24:31;1.00;;;0.97;;
7961;SDS011;4026;43.652;24.906;2024-01-27T10:27:00;1.33;;;1.23;;
7961;SDS011;4026;43.652;24.906;2024-01-27T10:29:28;1.60;;;1.17;;
7961;SDS011;4026;43.652;24.906;2024-01-27T10:31:55;0.73;;;0.63;;
7961;SDS011;4026;43.652;24.906;2024-01-27T10:34:21;1.13;;;0.80;;
7961;SDS011;4026;43.652;24.906;2024-01-27T10:36:48;1.30;;;1.20;;
7961;SDS011;4026;43.652;24.906;2024-01-27T10:39:19;1.43;;;1.33;;
7961;SDS011;4026;43.652;24.906;2024-01-27T10:41:47;1.07;;;0.90;;
7961;SDS011;4026;43.652;24.906;2024-01-27T10:44:16;3.40;;;0.97;;
7961;SDS011;4026;43.652;24.906;2024-01-27T10:46:44;1.40;;;0.83;;
7961;SDS011;4026;43.652;24.906;2024-01-27T10:49:12;2.13;;;0.90;;
7961;SDS011;4026;43.652;24.906;2024-01-27T10:51:42;1.43;;;1.03;;
7961;SDS011;4026;43.652;24.906;2024-01-27T10:54:13;2.87;;;0.93;;
7961;SDS011;4026;43.652;24.906;2024-01-27T10:56:42;1.50;;;1.17;;
7961;SDS011;4026;43.652;24.906;2024-01-27T10:59:09;2.47;;;1.57;;
7961;SDS011;4026;43.652;24.906;2024-01-27T11:01:39;0.80;;;0.80;;
7961;SDS011;4026;43.652;24.906;2024-01-27T11:04:07;0.93;;;0.83;;
7961;SDS011;4026;43.652;24.906;2024-01-27T11:06:38;1.30;;;1.10;;
7961;SDS011;4026;43.652;24.906;2024-01-27T11:09:07;1.97;;;1.43;;
7961;SDS011;4026;43.652;24.906;2024-01-27T11:11:34;1.00;;;0.90;;
7961;SDS011;4026;43.652;24.906;2024-01-27T11:14:02;1.07;;;0.93;;
7961;SDS011;4026;43.652;24.906;2024-01-27T11:16:29;3.13;;;1.07;;
7961;SDS011;4026;43.652;24.906;2024-01-27T11:18:57;1.17;;;0.90;;
7961;SDS011;4026;43.652;24.906;2024-01-27T11:21:24;0.57;;;0.50;;
7961;SDS011;4026;43.652;24.906;2024-01-27T11:23:51;0.60;;;0.60;;
7961;SDS011;4026;43.652;24.906;2024-01-27T11:26:19;2.10;;;1.10;;
7961;SDS011;4026;43.652;24.906;2024-01-27T11:28:47;1.17;;;0.97;;
7961;SDS011;4026;43.652;24.906;2024-01-27T11:31:15;1.90;;;1.07;;
7961;SDS011;4026;43.652;24.906;2024-01-27T11:33:44;1.60;;;0.80;;
7961;SDS011;4026;43.652;24.906;2024-01-27T11:36:21;0.70;;;0.50;;
7961;SDS011;4026;43.652;24.906;2024-01-27T11:38:49;0.50;;;0.50;;
7961;SDS011;4026;43.652;24.906;2024-01-27T11:41:23;1.13;;;0.77;;
7961;SDS011;4026;43.652;24.906;2024-01-27T11:43:51;0.80;;;0.67;;
7961;SDS011;4026;43.652;24.906;2024-01-27T11:46:19;0.63;;;0.63;;
7961;SDS011;4026;43.652;24.906;2024-01-27T11:48:46;2.10;;;1.20;;
7961;SDS011;4026;43.652;24.906;2024-01-27T11:51:13;1.60;;;1.00;;
7961;SDS011;4026;43.652;24.906;2024-01-27T11:53:42;0.93;;;0.93;;
7961;SDS011;4026;43.652;24.906;2024-01-27T11:56:10;1.00;;;0.70;;
7961;SDS011;4026;43.652;24.906;2024-01-27T11:58:37;1.17;;;0.67;;
7961;SDS011;4026;43.652;24.906;2024-01-27T12:01:04;2.47;;;1.03;;
7961;SDS011;4026;43.652;24.906;2024-01-27T12:03:30;1.23;;;0.77;;
7961;SDS011;4026;43.652;24.906;2024-01-27T12:05:58;0.60;;;0.60;;
7961;SDS011;4026;43.652;24.906;2024-01-27T12:08:25;1.03;;;0.90;;
7961;SDS011;4026;43.652;24.906;2024-01-27T12:10:54;1.63;;;1.17;;
7961;SDS011;4026;43.652;24.906;2024-01-27T12:13:21;1.67;;;1.13;;
7961;SDS011;4026;43.652;24.906;2024-01-27T12:15:48;1.90;;;1.33;;
7961;SDS011;4026;43.652;24.906;2024-01-27T12:18:15;1.87;;;1.40;;
7961;SDS011;4026;43.652;24.906;2024-01-27T12:20:44;1.53;;;1.10;;
7961;SDS011;4026;43.652;24.906;2024-01-27T12:23:11;1.83;;;1.10;;
7961;SDS011;4026;43.652;24.906;2024-01-27T12:25:38;2.73;;;1.17;;
7961;SDS011;4026;43.652;24.906;2024-01-27T12:28:07;1.50;;;1.00;;
7961;SDS011;4026;43.652;24.906;2024-01-27T12:30:34;1.63;;;1.30;;
7961;SDS011;4026;43.652;24.906;2024-01-27T12:33:07;2.77;;;1.30;;
7961;SDS011;4026;43.652;24.906;2024-01-27T12:35:36;3.90;;;1.77;;
7961;SDS011;4026;43.652;24.906;2024-01-27T12:38:02;3.07;;;1.63;;
7961;SDS011;4026;43.652;24.906;2024-01-27T12:40:31;3.13;;;1.90;;
7961;SDS011;4026;43.652;24.906;2024-01-27T12:42:58;3.53;;;1.97;;
7961;SDS011;4026;43.652;24.906;2024-01-27T12:45:26;3.23;;;1.67;;
7961;SDS011;4026;43.652;24.906;2024-01-27T12:47:54;2.80;;;1.47;;
7961;SDS011;4026;43.652;24.906;2024-01-27T12:50:21;3.73;;;1.67;;
7961;SDS011;4026;43.652;24.906;2024-01-27T12:52:47;4.57;;;1.93;;
7961;SDS011;4026;43.652;24.906;2024-01-27T12:55:14;3.30;;;1.63;;
7961;SDS011;4026;43.652;24.906;2024-01-27T12:57:41;2.27;;;1.43;;
7961;SDS011;4026;43.652;24.906;2024-01-27T13:00:09;4.57;;;1.50;;
7961;SDS011;4026;43.652;24.906;2024-01-27T13:02:39;1.23;;;0.77;;
